Time;durP1;ratioP1;P1;durP2;ratioP2;P2;SDS_P1;SDS_P2;PMS_P1;PMS_P2;Temp;Humidity;BMP_temperature;BMP_pressure;BME280_temperature;BME280_humidity;BME280_pressure;Samples;Min_cycle;Max_cycle;Signal;HPM_P1;HPM_P2
2023/01/22 00:00:43;;;;;;;11.60;7.97;;;;;;;;;;6178449;23;20503;-75
2023/01/22 00:03:08;;;;;;;10.10;7.80;;;;;;;;;;6177353;23;20773;-75
2023/01/22 00:05:36;;;;;;;8.50;7.63;;;;;;;;;;6176172;23;20288;-75
2023/01/22 00:08:01;;;;;;;8.90;7.73;;;;;;;;;;6179119;23;20177;-75
2023/01/22 00:10:31;;;;;;;9.30;7.47;;;;;;;;;;6181105;23;20368;-75
2023/01/22 00:12:56;;;;;;;9.03;7.50;;;;;;;;;;6154052;23;20236;-75
2023/01/22 00:15:26;;;;;;;9.27;7.40;;;;;;;;;;6182305;23;20403;-75
2023/01/22 00:17:52;;;;;;;11.47;7.50;;;;;;;;;;6174789;23;20168;-75
2023/01/22 00:20:20;;;;;;;10.70;7.70;;;;;;;;;;6153926;23;20383;-75
2023/01/22 00:22:47;;;;;;;10.00;7.60;;;;;;;;;;6180915;23;20399;-75
2023/01/22 00:25:12;;;;;;;9.60;7.80;;;;;;;;;;6181064;23;20851;-75
2023/01/22 00:27:39;;;;;;;8.27;7.30;;;;;;;;;;6179864;23;20395;-75
2023/01/22 00:30:07;;;;;;;9.80;7.53;;;;;;;;;;6154841;23;20203;-75
2023/01/22 00:32:32;;;;;;;8.93;7.60;;;;;;;;;;6182105;23;20375;-75
2023/01/22 00:35:00;;;;;;;9.27;7.20;;;;;;;;;;6154218;23;20372;-75
2023/01/22 00:37:25;;;;;;;8.57;7.77;;;;;;;;;;6178593;23;20168;-75
2023/01/22 00:39:53;;;;;;;8.30;7.50;;;;;;;;;;6179371;23;20368;-75
2023/01/22 00:42:21;;;;;;;8.53;7.30;;;;;;;;;;6179611;23;20175;-75
2023/01/22 00:44:46;;;;;;;9.40;6.93;;;;;;;;;;6175393;23;20667;-74
2023/01/22 00:47:14;;;;;;;9.20;7.67;;;;;;;;;;6151301;23;20885;-75
2023/01/22 00:49:39;;;;;;;10.90;6.67;;;;;;;;;;6179175;23;20145;-75
2023/01/22 00:52:07;;;;;;;11.33;7.50;;;;;;;;;;6181269;23;20375;-75
2023/01/22 00:54:37;;;;;;;10.53;7.63;;;;;;;;;;6177454;23;20223;-75
2023/01/22 00:57:07;;;;;;;8.93;6.83;;;;;;;;;;6179804;23;20388;-75
2023/01/22 00:59:37;;;;;;;9.33;8.13;;;;;;;;;;6152238;23;20842;-75
2023/01/22 01:02:05;;;;;;;11.40;8.43;;;;;;;;;;6180348;23;20555;-75
2023/01/22 01:04:32;;;;;;;9.20;7.80;;;;;;;;;;6179050;23;20372;-75
2023/01/22 01:20:10;;;;;;;8.60;6.10;;;;;;;;;;6167043;22;1327709;-69
2023/01/22 01:22:35;;;;;;;6.70;5.70;;;;;;;;;;6173204;23;20231;-70
2023/01/22 01:25:00;;;;;;;9.93;6.03;;;;;;;;;;6159877;23;20368;-69
2023/01/22 01:27:25;;;;;;;7.27;6.00;;;;;;;;;;6157379;23;20199;-69
2023/01/22 01:29:51;;;;;;;6.40;5.40;;;;;;;;;;6158596;23;20152;-69
2023/01/22 01:32:16;;;;;;;6.60;5.80;;;;;;;;;;6159578;23;20212;-69
2023/01/22 01:34:42;;;;;;;6.00;4.80;;;;;;;;;;6159934;23;20156;-69
2023/01/22 01:37:07;;;;;;;7.03;5.40;;;;;;;;;;6132229;23;20188;-70
2023/01/22 01:39:32;;;;;;;7.20;4.47;;;;;;;;;;6157570;23;20415;-69
2023/01/22 01:41:58;;;;;;;6.17;4.70;;;;;;;;;;6130754;23;20223;-70
2023/01/22 01:44:23;;;;;;;5.60;4.70;;;;;;;;;;6132263;23;20185;-69
2023/01/22 01:46:54;;;;;;;6.70;4.33;;;;;;;;;;6158724;23;20199;-69
2023/01/22 01:49:28;;;;;;;5.83;3.77;;;;;;;;;;6132110;23;20249;-69
2023/01/22 01:51:55;;;;;;;4.20;3.80;;;;;;;;;;6156924;23;20399;-69
2023/01/22 01:54:20;;;;;;;6.50;4.20;;;;;;;;;;6157011;23;20364;-69
2023/01/22 01:56:48;;;;;;;4.30;3.80;;;;;;;;;;6155339;23;20499;-69
2023/01/22 01:59:14;;;;;;;4.83;3.93;;;;;;;;;;6157238;23;20169;-70
2023/01/22 02:01:40;;;;;;;6.60;3.90;;;;;;;;;;6154457;23;20447;-70
2023/01/22 02:04:05;;;;;;;5.43;3.40;;;;;;;;;;6157682;23;20369;-69
2023/01/22 02:06:31;;;;;;;7.03;4.27;;;;;;;;;;6158248;23;20190;-69
2023/01/22 02:08:56;;;;;;;3.80;3.10;;;;;;;;;;6157532;23;20149;-71
2023/01/22 02:11:22;;;;;;;5.17;3.77;;;;;;;;;;6157476;23;20204;-70
2023/01/22 02:13:52;;;;;;;3.23;2.93;;;;;;;;;;6132579;23;20165;-70
2023/01/22 02:16:18;;;;;;;3.90;3.37;;;;;;;;;;6153157;23;20149;-69
2023/01/22 02:18:43;;;;;;;3.07;2.77;;;;;;;;;;6141130;23;20433;-69
2023/01/22 02:21:27;;;;;;;6.20;3.33;;;;;;;;;;6179132;23;20149;-69
2023/01/22 02:23:52;;;;;;;5.27;3.60;;;;;;;;;;6180602;23;20179;-69
2023/01/22 02:26:17;;;;;;;6.37;3.30;;;;;;;;;;6180833;23;20376;-69
2023/01/22 02:28:42;;;;;;;3.10;2.70;;;;;;;;;;6179609;23;20152;-70
2023/01/22 02:31:07;;;;;;;3.93;2.80;;;;;;;;;;6178915;23;20680;-70
2023/01/22 02:33:33;;;;;;;5.60;3.07;;;;;;;;;;6180423;23;20172;-69
2023/01/22 02:35:58;;;;;;;4.50;2.60;;;;;;;;;;6180685;23;20155;-69
2023/01/22 02:38:23;;;;;;;6.50;3.20;;;;;;;;;;6181344;23;20623;-69
2023/01/22 02:40:49;;;;;;;2.30;2.10;;;;;;;;;;6181970;23;20152;-69
2023/01/22 02:43:14;;;;;;;3.73;2.90;;;;;;;;;;6179695;23;20168;-69
2023/01/22 02:45:39;;;;;;;4.43;2.60;;;;;;;;;;6181694;23;20168;-70
2023/01/22 02:48:05;;;;;;;3.50;2.67;;;;;;;;;;6181729;23;20149;-70
2023/01/22 02:50:30;;;;;;;4.50;2.97;;;;;;;;;;6181659;23;20145;-69
2023/01/22 02:52:55;;;;;;;3.80;2.50;;;;;;;;;;6154955;23;20588;-69
2023/01/22 02:55:21;;;;;;;3.90;2.43;;;;;;;;;;6182058;23;20203;-70
2023/01/22 02:57:46;;;;;;;3.50;2.80;;;;;;;;;;6181380;23;20505;-69
2023/01/22 03:00:11;;;;;;;5.60;3.37;;;;;;;;;;6181876;23;20198;-69
2023/01/22 03:02:39;;;;;;;5.03;2.73;;;;;;;;;;6179867;23;20167;-69
2023/01/22 03:05:05;;;;;;;4.03;2.33;;;;;;;;;;6179715;23;20678;-67
2023/01/22 03:07:40;;;;;;;4.60;2.73;;;;;;;;;;6177905;23;20371;-67
2023/01/22 03:10:07;;;;;;;3.23;2.93;;;;;;;;;;6152848;23;20219;-67
2023/01/22 03:23:31;;;;;;;7.87;2.63;;;;;;;;;;6179551;23;20429;-67
2023/01/22 03:25:56;;;;;;;4.90;2.90;;;;;;;;;;6151764;23;20761;-66
2023/01/22 03:28:22;;;;;;;5.43;2.27;;;;;;;;;;6178631;23;20458;-67
2023/01/22 03:30:47;;;;;;;4.83;2.50;;;;;;;;;;6151456;23;20160;-66
2023/01/22 03:33:12;;;;;;;3.33;2.80;;;;;;;;;;6179093;23;20215;-67
2023/01/22 03:35:38;;;;;;;3.60;2.70;;;;;;;;;;6176398;23;20662;-67
2023/01/22 03:38:03;;;;;;;5.93;3.03;;;;;;;;;;6176449;23;20208;-67
2023/01/22 03:40:30;;;;;;;5.43;2.83;;;;;;;;;;6182419;23;20140;-67
2023/01/22 03:42:56;;;;;;;7.27;2.93;;;;;;;;;;6181774;23;20199;-66
2023/01/22 03:45:24;;;;;;;4.50;3.07;;;;;;;;;;6176982;23;20371;-65
2023/01/22 03:47:52;;;;;;;4.57;2.77;;;;;;;;;;6154375;23;20179;-65
2023/01/22 03:50:19;;;;;;;4.20;2.70;;;;;;;;;;6180587;23;20372;-67
2023/01/22 03:52:45;;;;;;;5.10;3.00;;;;;;;;;;6153281;23;20396;-69
2023/01/22 03:55:10;;;;;;;5.10;3.47;;;;;;;;;;6180189;23;20372;-70
2023/01/22 03:57:35;;;;;;;4.70;3.50;;;;;;;;;;6178014;23;20691;-70
2023/01/22 04:00:05;;;;;;;4.97;2.90;;;;;;;;;;6180198;23;20141;-70
2023/01/22 04:02:31;;;;;;;2.90;2.60;;;;;;;;;;6180681;23;20188;-69
2023/01/22 04:04:56;;;;;;;3.70;2.93;;;;;;;;;;6178464;23;20831;-69
2023/01/22 04:07:21;;;;;;;3.50;3.20;;;;;;;;;;6180094;23;20141;-70
2023/01/22 04:09:46;;;;;;;3.60;2.90;;;;;;;;;;6179739;23;20144;-69
2023/01/22 04:12:14;;;;;;;4.73;3.33;;;;;;;;;;6178434;23;20171;-69
2023/01/22 04:14:39;;;;;;;6.03;3.00;;;;;;;;;;6179732;23;20141;-69
2023/01/22 04:17:07;;;;;;;4.07;3.20;;;;;;;;;;6177081;23;20372;-69
2023/01/22 04:19:32;;;;;;;5.13;3.33;;;;;;;;;;6177827;23;20179;-69
2023/01/22 04:21:57;;;;;;;3.20;2.80;;;;;;;;;;6179681;23;20941;-69
2023/01/22 04:24:23;;;;;;;3.37;2.77;;;;;;;;;;6180331;23;20642;-70
2023/01/22 04:26:51;;;;;;;6.00;2.90;;;;;;;;;;6180333;23;20145;-70
2023/01/22 04:29:17;;;;;;;4.17;3.07;;;;;;;;;;6179268;23;20156;-69
2023/01/22 04:31:42;;;;;;;3.67;3.37;;;;;;;;;;6178199;23;20388;-69
2023/01/22 04:34:07;;;;;;;3.27;2.93;;;;;;;;;;6181170;23;20144;-69
2023/01/22 04:36:32;;;;;;;4.23;3.37;;;;;;;;;;6153502;23;20166;-69
2023/01/22 04:39:00;;;;;;;7.37;4.20;;;;;;;;;;6181134;23;20169;-69
2023/01/22 04:41:25;;;;;;;4.20;3.17;;;;;;;;;;6181216;23;20148;-70
2023/01/22 04:43:51;;;;;;;4.70;3.07;;;;;;;;;;6180952;23;20369;-70
2023/01/22 04:46:16;;;;;;;4.40;3.70;;;;;;;;;;6153808;23;20149;-67
2023/01/22 04:48:41;;;;;;;4.53;3.33;;;;;;;;;;6154016;23;20153;-67
2023/01/22 04:51:06;;;;;;;4.03;3.43;;;;;;;;;;6181290;23;20144;-67
2023/01/22 04:53:32;;;;;;;7.43;4.20;;;;;;;;;;6180896;23;20188;-66
2023/01/22 04:55:57;;;;;;;3.70;2.87;;;;;;;;;;6177872;23;20525;-67
2023/01/22 04:58:25;;;;;;;3.50;2.93;;;;;;;;;;6179160;23;20183;-66
2023/01/22 05:00:50;;;;;;;3.90;3.40;;;;;;;;;;6180320;23;20145;-67
2023/01/22 05:03:15;;;;;;;4.80;3.70;;;;;;;;;;6179966;23;20944;-65
2023/01/22 05:05:41;;;;;;;7.60;3.40;;;;;;;;;;6150211;23;20149;-67
2023/01/22 05:08:06;;;;;;;4.20;3.03;;;;;;;;;;6177826;23;20259;-67
2023/01/22 05:10:31;;;;;;;3.87;2.97;;;;;;;;;;6179138;23;20159;-67
2023/01/22 05:13:00;;;;;;;4.83;3.43;;;;;;;;;;6178834;23;20256;-67
2023/01/22 05:15:26;;;;;;;3.40;3.07;;;;;;;;;;6175797;23;20940;-70
2023/01/22 05:17:51;;;;;;;3.10;2.80;;;;;;;;;;6150906;23;20427;-71
2023/01/22 05:20:17;;;;;;;3.47;3.00;;;;;;;;;;6177787;23;20537;-70
2023/01/22 05:22:42;;;;;;;3.40;3.10;;;;;;;;;;6151550;23;20169;-70
2023/01/22 05:25:07;;;;;;;3.50;2.83;;;;;;;;;;6151451;23;20149;-69
2023/01/22 05:27:32;;;;;;;3.17;2.87;;;;;;;;;;6178651;23;20184;-70
2023/01/22 05:29:58;;;;;;;3.90;2.60;;;;;;;;;;6152535;23;20475;-69
2023/01/22 05:32:23;;;;;;;7.07;3.10;;;;;;;;;;6151324;23;20168;-70
2023/01/22 05:34:48;;;;;;;3.03;2.77;;;;;;;;;;6175754;23;20891;-70
2023/01/22 05:37:14;;;;;;;4.40;2.43;;;;;;;;;;6178097;23;20156;-69
2023/01/22 05:39:39;;;;;;;2.70;2.30;;;;;;;;;;6152670;23;20188;-69
2023/01/22 05:42:04;;;;;;;4.00;2.67;;;;;;;;;;6178330;23;20196;-69
2023/01/22 05:44:29;;;;;;;2.57;2.37;;;;;;;;;;6178571;23;20149;-69
2023/01/22 05:46:55;;;;;;;3.20;2.90;;;;;;;;;;6175914;23;20489;-67
2023/01/22 05:49:20;;;;;;;4.33;2.57;;;;;;;;;;6151107;23;20179;-67
2023/01/22 05:51:45;;;;;;;2.70;2.50;;;;;;;;;;6175717;23;20172;-66
2023/01/22 05:54:11;;;;;;;4.33;2.70;;;;;;;;;;6177431;23;20181;-67
2023/01/22 05:56:36;;;;;;;4.97;3.17;;;;;;;;;;6153687;23;20187;-67
2023/01/22 05:59:01;;;;;;;3.43;3.10;;;;;;;;;;6154500;23;20227;-67
2023/01/22 06:01:27;;;;;;;4.33;2.73;;;;;;;;;;6179943;23;20144;-67
2023/01/22 06:03:52;;;;;;;5.17;3.40;;;;;;;;;;6155789;23;20156;-67
2023/01/22 06:06:18;;;;;;;5.00;3.23;;;;;;;;;;6154493;23;20232;-67
2023/01/22 06:08:46;;;;;;;3.40;3.10;;;;;;;;;;6180650;23;20172;-67
2023/01/22 06:11:13;;;;;;;6.43;3.63;;;;;;;;;;6178977;23;20159;-67
2023/01/22 06:13:40;;;;;;;4.33;3.10;;;;;;;;;;6154534;23;20384;-70
2023/01/22 06:16:06;;;;;;;3.30;2.83;;;;;;;;;;6180833;23;20371;-67
2023/01/22 06:18:32;;;;;;;3.50;3.03;;;;;;;;;;6181728;23;20419;-67
2023/01/22 06:20:58;;;;;;;5.60;3.70;;;;;;;;;;6178636;23;20155;-67
2023/01/22 06:23:25;;;;;;;5.07;3.50;;;;;;;;;;6180273;23;20557;-67
2023/01/22 06:25:52;;;;;;;2.83;2.63;;;;;;;;;;6181334;23;20372;-67
2023/01/22 06:28:17;;;;;;;3.17;2.87;;;;;;;;;;6152566;23;20380;-67
2023/01/22 06:30:42;;;;;;;4.40;3.17;;;;;;;;;;6179942;23;20451;-68
2023/01/22 06:33:07;;;;;;;4.20;3.33;;;;;;;;;;6180053;23;21112;-67
2023/01/22 06:35:33;;;;;;;10.30;4.10;;;;;;;;;;6154239;23;20174;-66
2023/01/22 06:37:58;;;;;;;5.90;3.97;;;;;;;;;;6180877;23;20571;-67
2023/01/22 06:40:23;;;;;;;8.13;4.30;;;;;;;;;;6181516;23;20148;-68
2023/01/22 06:42:48;;;;;;;5.20;3.40;;;;;;;;;;6156337;23;20176;-67
2023/01/22 06:45:14;;;;;;;3.27;2.90;;;;;;;;;;6180355;23;20228;-67
2023/01/22 06:47:43;;;;;;;4.80;3.00;;;;;;;;;;6155076;23;20149;-67
2023/01/22 06:50:09;;;;;;;2.87;2.57;;;;;;;;;;6182332;23;20145;-68
2023/01/22 06:52:34;;;;;;;4.13;3.03;;;;;;;;;;6181056;23;20392;-67
2023/01/22 06:54:59;;;;;;;3.87;2.77;;;;;;;;;;6152559;23;20148;-67
2023/01/22 06:57:24;;;;;;;3.00;2.70;;;;;;;;;;6152120;23;20152;-67
2023/01/22 06:59:50;;;;;;;3.70;2.70;;;;;;;;;;6153511;23;20254;-67
2023/01/22 07:02:16;;;;;;;3.20;2.90;;;;;;;;;;6149802;23;20169;-67
2023/01/22 07:04:41;;;;;;;3.07;2.40;;;;;;;;;;6145678;23;20191;-67
2023/01/22 07:07:06;;;;;;;2.97;2.63;;;;;;;;;;6176611;23;20368;-66
2023/01/22 07:09:32;;;;;;;5.90;2.93;;;;;;;;;;6178583;23;20859;-67
2023/01/22 07:11:59;;;;;;;4.33;2.70;;;;;;;;;;6177689;23;20168;-66
2023/01/22 07:14:25;;;;;;;5.00;3.03;;;;;;;;;;6151401;23;20149;-67
2023/01/22 07:16:50;;;;;;;5.37;2.90;;;;;;;;;;6178679;23;20364;-67
2023/01/22 07:19:15;;;;;;;3.17;2.43;;;;;;;;;;6175930;23;20187;-66
2023/01/22 07:21:40;;;;;;;3.70;2.77;;;;;;;;;;6178933;23;20192;-65
2023/01/22 07:24:06;;;;;;;3.10;2.73;;;;;;;;;;6178983;23;20638;-66
2023/01/22 07:26:31;;;;;;;3.73;3.00;;;;;;;;;;6179279;23;20144;-67
2023/01/22 07:28:56;;;;;;;2.83;2.30;;;;;;;;;;6177483;23;20152;-66
2023/01/22 07:31:22;;;;;;;5.33;3.40;;;;;;;;;;6179303;23;20144;-67
2023/01/22 07:33:47;;;;;;;3.30;3.00;;;;;;;;;;6177790;23;20206;-66
2023/01/22 07:36:12;;;;;;;3.50;2.87;;;;;;;;;;6178425;23;20672;-67
2023/01/22 07:38:37;;;;;;;4.53;3.77;;;;;;;;;;6179792;23;20223;-69
2023/01/22 07:41:03;;;;;;;5.00;3.53;;;;;;;;;;6179548;23;20152;-70
2023/01/22 07:43:29;;;;;;;6.90;3.70;;;;;;;;;;6178963;23;20215;-69
2023/01/22 07:45:56;;;;;;;3.80;3.50;;;;;;;;;;6179467;23;20371;-69
2023/01/22 07:48:21;;;;;;;3.40;3.10;;;;;;;;;;6179531;23;20148;-69
2023/01/22 07:50:47;;;;;;;3.93;3.40;;;;;;;;;;6178783;23;20436;-70
2023/01/22 07:53:12;;;;;;;4.63;3.17;;;;;;;;;;6178336;23;20648;-69
2023/01/22 07:55:39;;;;;;;6.00;2.80;;;;;;;;;;6152322;23;20210;-69
2023/01/22 07:58:05;;;;;;;3.83;2.70;;;;;;;;;;6152334;23;20184;-70
2023/01/22 08:00:32;;;;;;;2.57;2.37;;;;;;;;;;6178474;23;20459;-69
2023/01/22 08:02:57;;;;;;;4.17;3.77;;;;;;;;;;6153124;23;20442;-69
2023/01/22 08:05:23;;;;;;;3.30;3.00;;;;;;;;;;6179854;23;20865;-69
2023/01/22 08:07:48;;;;;;;4.70;2.90;;;;;;;;;;6178480;23;20154;-67
2023/01/22 08:10:15;;;;;;;3.17;2.87;;;;;;;;;;6179323;23;20477;-67
2023/01/22 08:12:42;;;;;;;3.20;2.90;;;;;;;;;;6179078;23;20238;-66
2023/01/22 08:15:08;;;;;;;3.90;2.97;;;;;;;;;;6175734;23;20722;-66
2023/01/22 08:17:33;;;;;;;3.17;2.87;;;;;;;;;;6148976;23;20384;-67
2023/01/22 08:19:59;;;;;;;4.60;3.50;;;;;;;;;;6175462;23;20164;-68
2023/01/22 08:22:24;;;;;;;3.60;3.17;;;;;;;;;;6176999;23;20172;-67
2023/01/22 08:24:49;;;;;;;3.23;2.90;;;;;;;;;;6150680;23;20156;-67
2023/01/22 08:27:15;;;;;;;4.47;2.80;;;;;;;;;;6152135;23;20149;-67
2023/01/22 08:29:40;;;;;;;3.20;2.80;;;;;;;;;;6177261;23;20148;-69
2023/01/22 08:32:07;;;;;;;3.80;3.40;;;;;;;;;;6179563;23;20171;-70
2023/01/22 08:34:33;;;;;;;3.97;3.60;;;;;;;;;;6154033;23;20156;-69
2023/01/22 08:36:58;;;;;;;4.23;3.57;;;;;;;;;;6179672;23;20406;-70
2023/01/22 08:39:23;;;;;;;4.33;3.37;;;;;;;;;;6177402;23;20176;-69
2023/01/22 08:41:56;;;;;;;3.40;3.03;;;;;;;;;;6151638;23;20655;-69
2023/01/22 08:44:21;;;;;;;3.87;3.47;;;;;;;;;;6173975;23;20375;-69
2023/01/22 08:46:46;;;;;;;5.37;3.80;;;;;;;;;;6180021;23;20424;-70
2023/01/22 08:49:12;;;;;;;4.33;3.93;;;;;;;;;;6148065;23;20555;-69
2023/01/22 08:51:37;;;;;;;7.17;3.57;;;;;;;;;;6176426;23;20161;-70
2023/01/22 08:54:02;;;;;;;4.10;3.70;;;;;;;;;;6171373;23;20152;-70
2023/01/22 08:56:27;;;;;;;3.83;3.43;;;;;;;;;;6175251;23;20144;-71
2023/01/22 08:58:55;;;;;;;4.43;3.37;;;;;;;;;;6177556;23;20202;-70
2023/01/22 09:01:20;;;;;;;3.63;3.33;;;;;;;;;;6150466;23;20157;-68
2023/01/22 09:03:48;;;;;;;6.07;3.90;;;;;;;;;;6177018;23;21162;-69
2023/01/22 09:06:14;;;;;;;4.10;3.57;;;;;;;;;;6176691;23;20145;-68
2023/01/22 09:08:39;;;;;;;3.87;3.50;;;;;;;;;;6177968;23;20468;-69
2023/01/22 09:11:07;;;;;;;4.37;3.40;;;;;;;;;;6179488;23;20883;-69
2023/01/22 09:13:32;;;;;;;3.50;3.20;;;;;;;;;;6178128;23;20172;-69
2023/01/22 09:15:58;;;;;;;3.73;3.30;;;;;;;;;;6178353;23;21225;-70
2023/01/22 09:18:23;;;;;;;4.43;3.80;;;;;;;;;;6176678;23;20230;-71
2023/01/22 09:20:48;;;;;;;3.77;3.10;;;;;;;;;;6177086;23;20151;-68
2023/01/22 09:23:14;;;;;;;4.33;3.40;;;;;;;;;;6178528;23;20168;-71
2023/01/22 09:25:39;;;;;;;4.53;3.60;;;;;;;;;;6178446;23;20144;-69
2023/01/22 09:28:07;;;;;;;4.60;3.83;;;;;;;;;;6151931;23;20160;-70
2023/01/22 09:30:38;;;;;;;3.90;3.30;;;;;;;;;;6179179;23;20155;-70
2023/01/22 09:33:03;;;;;;;3.27;2.97;;;;;;;;;;6154205;23;20486;-70
2023/01/22 09:35:28;;;;;;;4.63;3.67;;;;;;;;;;6175655;23;20403;-71
2023/01/22 09:37:54;;;;;;;4.07;3.70;;;;;;;;;;6174994;23;20620;-70
2023/01/22 09:40:22;;;;;;;5.03;3.50;;;;;;;;;;6174163;23;20162;-70
2023/01/22 09:42:48;;;;;;;5.93;3.27;;;;;;;;;;6177602;23;20275;-69
2023/01/22 09:45:16;;;;;;;3.17;2.80;;;;;;;;;;6175515;23;20402;-70
2023/01/22 09:48:01;;;;;;;3.40;3.10;;;;;;;;;;6149994;23;20941;-70
2023/01/22 09:50:28;;;;;;;4.07;3.67;;;;;;;;;;6178394;23;20909;-70
2023/01/22 09:52:56;;;;;;;4.90;3.33;;;;;;;;;;6178792;23;20388;-69
2023/01/22 09:55:22;;;;;;;3.67;3.37;;;;;;;;;;6180845;23;21026;-70
2023/01/22 09:57:50;;;;;;;4.90;4.50;;;;;;;;;;6154226;23;20423;-69
2023/01/22 10:00:17;;;;;;;6.60;4.73;;;;;;;;;;6180603;23;20368;-70
2023/01/22 10:02:54;;;;;;;10.07;7.07;;;;;;;;;;6152284;23;20392;-70
2023/01/22 10:05:28;;;;;;;6.60;4.90;;;;;;;;;;6178483;23;20363;-71
2023/01/22 10:08:13;;;;;;;10.50;7.50;;;;;;;;;;6153224;23;20569;-69
2023/01/22 10:10:39;;;;;;;4.63;4.13;;;;;;;;;;6180791;23;20705;-70
2023/01/22 10:13:21;;;;;;;5.77;3.90;;;;;;;;;;6152639;23;20396;-70
2023/01/22 10:15:47;;;;;;;5.80;4.40;;;;;;;;;;6179464;23;20148;-69
2023/01/22 10:18:23;;;;;;;5.93;4.80;;;;;;;;;;6179432;23;20430;-71
2023/01/22 10:20:51;;;;;;;5.30;4.80;;;;;;;;;;6150656;23;20364;-70
2023/01/22 10:23:18;;;;;;;5.70;5.00;;;;;;;;;;6146411;23;20394;-72
2023/01/22 10:25:43;;;;;;;5.73;4.13;;;;;;;;;;6172243;23;20367;-72
2023/01/22 10:28:09;;;;;;;6.40;4.83;;;;;;;;;;6169963;23;20376;-70
2023/01/22 10:30:43;;;;;;;6.20;4.27;;;;;;;;;;6177209;23;20163;-70
2023/01/22 10:33:14;;;;;;;3.97;3.57;;;;;;;;;;6152089;23;20743;-71
2023/01/22 10:35:45;;;;;;;5.10;3.60;;;;;;;;;;6178052;23;20399;-70
2023/01/22 10:38:25;;;;;;;3.20;2.90;;;;;;;;;;6152439;23;20423;-71
2023/01/22 10:40:54;;;;;;;4.40;3.73;;;;;;;;;;6149576;23;20425;-70
2023/01/22 10:43:20;;;;;;;3.83;3.43;;;;;;;;;;6175488;23;20879;-71
2023/01/22 10:45:52;;;;;;;9.13;5.10;;;;;;;;;;6146401;23;20383;-67
2023/01/22 10:48:18;;;;;;;4.17;3.77;;;;;;;;;;6168028;23;20149;-70
2023/01/22 10:50:44;;;;;;;5.80;4.03;;;;;;;;;;6176893;23;20376;-71
2023/01/22 10:53:14;;;;;;;4.50;3.70;;;;;;;;;;6176260;23;20247;-72
2023/01/22 10:55:42;;;;;;;6.40;4.03;;;;;;;;;;6177689;23;20383;-71
2023/01/22 10:58:14;;;;;;;5.43;3.90;;;;;;;;;;6177348;23;20444;-70
2023/01/22 11:00:40;;;;;;;3.53;3.20;;;;;;;;;;6181057;23;20356;-70
2023/01/22 11:03:20;;;;;;;3.80;3.30;;;;;;;;;;6177975;23;20380;-71
2023/01/22 11:05:46;;;;;;;5.77;3.47;;;;;;;;;;6180937;23;20220;-70
2023/01/22 11:08:14;;;;;;;5.00;3.63;;;;;;;;;;6179585;23;20406;-70
2023/01/22 11:10:42;;;;;;;3.33;3.03;;;;;;;;;;6151952;23;20160;-70
2023/01/22 11:13:10;;;;;;;4.43;3.80;;;;;;;;;;6179707;23;20479;-70
2023/01/22 11:15:39;;;;;;;4.70;4.30;;;;;;;;;;6180411;23;20368;-70
2023/01/22 11:18:06;;;;;;;6.90;4.80;;;;;;;;;;6180158;23;20430;-70
2023/01/22 11:20:34;;;;;;;5.80;4.47;;;;;;;;;;6180457;23;20356;-71
2023/01/22 11:22:59;;;;;;;5.73;3.57;;;;;;;;;;6177783;23;20384;-71
2023/01/22 11:25:25;;;;;;;4.20;3.20;;;;;;;;;;6151064;23;20408;-70
2023/01/22 11:28:16;;;;;;;5.27;4.00;;;;;;;;;;6178547;23;20216;-70
2023/01/22 11:30:49;;;;;;;6.93;3.93;;;;;;;;;;6170561;23;20726;-68
2023/01/22 11:33:20;;;;;;;5.00;3.70;;;;;;;;;;6177645;23;21119;-69
2023/01/22 11:35:49;;;;;;;3.70;3.33;;;;;;;;;;6175529;23;20379;-68
2023/01/22 11:38:24;;;;;;;4.40;3.37;;;;;;;;;;6177287;23;20439;-68
2023/01/22 11:41:08;;;;;;;5.60;4.03;;;;;;;;;;6154077;23;20387;-68
2023/01/22 11:43:42;;;;;;;4.80;4.07;;;;;;;;;;6177409;23;20384;-68
2023/01/22 11:46:08;;;;;;;5.23;3.73;;;;;;;;;;6176601;23;20391;-68
2023/01/22 11:48:48;;;;;;;3.90;3.50;;;;;;;;;;6173942;23;20372;-71
2023/01/22 11:51:40;;;;;;;6.73;4.20;;;;;;;;;;6150737;23;20168;-71
2023/01/22 11:54:24;;;;;;;4.50;3.80;;;;;;;;;;6119916;23;21054;-70
2023/01/22 11:57:08;;;;;;;5.73;3.90;;;;;;;;;;6152590;23;20406;-70
2023/01/22 11:59:53;;;;;;;5.03;4.17;;;;;;;;;;6151532;23;20423;-70
2023/01/22 12:02:29;;;;;;;5.57;3.93;;;;;;;;;;6176756;23;20718;-71
2023/01/22 12:05:19;;;;;;;4.57;3.77;;;;;;;;;;6148925;23;20455;-70
2023/01/22 12:07:44;;;;;;;6.60;3.97;;;;;;;;;;6176656;23;20353;-70
2023/01/22 12:10:18;;;;;;;5.83;3.90;;;;;;;;;;6177395;23;20371;-70
2023/01/22 12:13:02;;;;;;;6.17;3.57;;;;;;;;;;6176291;23;20167;-66
2023/01/22 12:15:27;;;;;;;5.47;3.53;;;;;;;;;;6150498;23;20384;-69
2023/01/22 12:17:53;;;;;;;5.87;4.03;;;;;;;;;;6177767;23;20925;-69
2023/01/22 12:20:36;;;;;;;6.63;3.53;;;;;;;;;;6179683;23;20159;-68
2023/01/22 12:23:07;;;;;;;5.50;3.63;;;;;;;;;;6147943;23;20164;-69
2023/01/22 12:25:35;;;;;;;5.23;4.10;;;;;;;;;;6178365;23;20832;-69
2023/01/22 12:28:10;;;;;;;5.97;4.50;;;;;;;;;;6151558;23;20381;-69
2023/01/22 12:30:39;;;;;;;8.17;4.37;;;;;;;;;;6178957;23;20364;-66
2023/01/22 12:33:05;;;;;;;7.37;4.37;;;;;;;;;;6172408;23;20411;-69
2023/01/22 12:35:30;;;;;;;6.07;3.50;;;;;;;;;;6148526;23;20380;-70
2023/01/22 12:38:01;;;;;;;4.47;3.43;;;;;;;;;;6177741;23;20922;-69
2023/01/22 12:40:26;;;;;;;6.10;3.73;;;;;;;;;;6177629;23;20691;-70
2023/01/22 12:42:58;;;;;;;8.20;3.63;;;;;;;;;;6150351;23;20399;-69
2023/01/22 12:45:26;;;;;;;3.60;3.10;;;;;;;;;;6175098;23;20168;-68
2023/01/22 12:47:57;;;;;;;9.37;3.90;;;;;;;;;;6177986;23;20451;-69
2023/01/22 12:50:24;;;;;;;6.80;3.40;;;;;;;;;;6177415;23;20372;-70
2023/01/22 12:53:00;;;;;;;6.77;4.23;;;;;;;;;;6149032;23;20794;-66
2023/01/22 12:55:33;;;;;;;5.03;3.90;;;;;;;;;;6150277;23;20479;-65
2023/01/22 12:57:59;;;;;;;5.07;3.43;;;;;;;;;;6174901;23;20917;-66
2023/01/22 13:00:35;;;;;;;5.17;3.60;;;;;;;;;;6178096;23;20471;-70
2023/01/22 13:03:20;;;;;;;6.43;3.67;;;;;;;;;;6150144;23;20646;-69
2023/01/22 13:05:45;;;;;;;8.00;4.37;;;;;;;;;;6178532;23;20348;-70
2023/01/22 13:08:17;;;;;;;11.00;4.20;;;;;;;;;;6185086;23;20866;-70
2023/01/22 13:11:01;;;;;;;6.13;3.60;;;;;;;;;;6178918;23;20211;-70
2023/01/22 13:13:32;;;;;;;6.00;4.07;;;;;;;;;;6179882;23;20392;-69
2023/01/22 13:16:01;;;;;;;7.50;4.20;;;;;;;;;;6153338;23;20383;-69
2023/01/22 13:18:30;;;;;;;5.40;4.20;;;;;;;;;;6194333;23;20443;-70
2023/01/22 13:21:16;;;;;;;6.70;4.33;;;;;;;;;;6179875;23;20851;-69
2023/01/22 13:23:43;;;;;;;5.60;3.90;;;;;;;;;;6155642;23;20395;-70
2023/01/22 13:26:19;;;;;;;10.00;4.50;;;;;;;;;;6179870;23;20364;-70
2023/01/22 13:28:51;;;;;;;8.83;4.50;;;;;;;;;;6179088;23;20394;-70
2023/01/22 13:31:17;;;;;;;5.47;3.80;;;;;;;;;;6182128;23;20391;-72
2023/01/22 13:33:56;;;;;;;5.90;4.10;;;;;;;;;;6177664;23;20380;-72
2023/01/22 13:36:21;;;;;;;5.60;3.10;;;;;;;;;;6182375;23;20156;-71
2023/01/22 13:38:50;;;;;;;4.67;3.80;;;;;;;;;;6181512;23;20961;-70
2023/01/22 13:41:23;;;;;;;5.23;3.60;;;;;;;;;;6155996;23;20199;-72
2023/01/22 13:43:48;;;;;;;9.40;6.70;;;;;;;;;;6154243;23;20388;-71
2023/01/22 13:46:14;;;;;;;8.83;4.37;;;;;;;;;;6181506;23;20360;-71
2023/01/22 13:48:40;;;;;;;7.80;4.37;;;;;;;;;;6180145;23;20157;-71
2023/01/22 13:51:07;;;;;;;9.23;4.33;;;;;;;;;;6180803;23;20149;-71
2023/01/22 13:53:37;;;;;;;6.00;3.97;;;;;;;;;;6156533;23;20438;-71
2023/01/22 13:56:03;;;;;;;7.80;4.30;;;;;;;;;;6183007;23;20696;-71
2023/01/22 13:58:30;;;;;;;8.37;4.80;;;;;;;;;;6182588;23;20439;-71
2023/01/22 14:00:58;;;;;;;6.27;4.20;;;;;;;;;;6181399;23;20563;-71
2023/01/22 14:03:25;;;;;;;9.77;4.43;;;;;;;;;;6181112;23;20384;-71
2023/01/22 14:06:00;;;;;;;6.87;3.37;;;;;;;;;;6156009;23;20375;-71
2023/01/22 14:08:25;;;;;;;11.87;4.30;;;;;;;;;;6182975;23;20406;-71
2023/01/22 14:10:58;;;;;;;9.10;4.43;;;;;;;;;;6182007;23;20371;-72
2023/01/22 14:13:23;;;;;;;4.70;3.67;;;;;;;;;;6181804;23;20192;-70
2023/01/22 14:15:57;;;;;;;6.97;3.50;;;;;;;;;;6155907;23;20809;-69
2023/01/22 14:18:23;;;;;;;5.73;4.20;;;;;;;;;;6181901;23;20179;-70
2023/01/22 14:20:48;;;;;;;5.90;3.87;;;;;;;;;;6184272;23;20368;-70
2023/01/22 14:23:14;;;;;;;5.37;3.90;;;;;;;;;;6176651;23;20508;-72
2023/01/22 14:25:40;;;;;;;9.90;4.70;;;;;;;;;;6150212;23;20652;-70
2023/01/22 14:28:06;;;;;;;14.93;6.33;;;;;;;;;;6180953;23;20153;-71
2023/01/22 14:30:31;;;;;;;11.77;6.27;;;;;;;;;;6182431;23;20431;-72
2023/01/22 14:32:57;;;;;;;8.50;4.63;;;;;;;;;;6154111;23;20177;-71
2023/01/22 14:35:23;;;;;;;8.10;4.00;;;;;;;;;;6154135;23;20507;-70
2023/01/22 14:37:49;;;;;;;12.70;4.07;;;;;;;;;;6153729;23;20264;-69
2023/01/22 14:40:18;;;;;;;5.37;3.50;;;;;;;;;;6174451;23;20782;-70
2023/01/22 14:42:45;;;;;;;6.67;3.63;;;;;;;;;;6149436;23;20403;-68
2023/01/22 14:45:10;;;;;;;5.37;3.37;;;;;;;;;;6173665;23;20408;-70
2023/01/22 14:47:36;;;;;;;5.97;3.10;;;;;;;;;;6148680;23;20376;-67
2023/01/22 14:50:02;;;;;;;6.30;3.50;;;;;;;;;;6176737;23;20222;-69
2023/01/22 14:52:27;;;;;;;5.20;4.07;;;;;;;;;;6149143;23;20180;-68
2023/01/22 14:54:56;;;;;;;5.80;3.63;;;;;;;;;;6175062;23;20378;-69
2023/01/22 14:57:22;;;;;;;9.03;3.33;;;;;;;;;;6174654;23;20164;-68
2023/01/22 14:59:47;;;;;;;6.63;3.17;;;;;;;;;;6150860;23;20438;-69
2023/01/22 15:02:12;;;;;;;5.00;3.80;;;;;;;;;;6151274;23;21225;-74
2023/01/22 15:04:41;;;;;;;5.20;3.77;;;;;;;;;;6178793;23;20144;-68
2023/01/22 15:07:07;;;;;;;6.20;4.40;;;;;;;;;;6153162;23;20610;-67
2023/01/22 15:09:32;;;;;;;5.63;3.73;;;;;;;;;;6178388;23;20474;-73